sensor_id;sensor_type;location;lat;lon;timestamp;pressure;altitude;pressure_sealevel;temperature;humidity
50550;BME280;36505;52.512;13.460;2023-01-28T00:00:24;102216.19;;;-0.37;77.54
50550;BME280;36505;52.512;13.460;2023-01-28T00:02:50;102214.63;;;-0.40;77.67
50550;BME280;36505;52.512;13.460;2023-01-28T00:05:15;102213.06;;;-0.43;77.42
50550;BME280;36505;52.512;13.460;2023-01-28T00:07:41;102210.63;;;-0.46;77.73
50550;BME280;36505;52.512;13.460;2023-01-28T00:10:07;102209.47;;;-0.53;78.21
50550;BME280;36505;52.512;13.460;2023-01-28T00:12:32;102213.88;;;-0.52;78.18
50550;BME280;36505;52.512;13.460;2023-01-28T00:14:58;102216.00;;;-0.55;78.48
50550;BME280;36505;52.512;13.460;2023-01-28T00:17:23;102213.00;;;-0.62;78.59
50550;BME280;36505;52.512;13.460;2023-01-28T00:19:48;102211.69;;;-0.67;78.70
50550;BME280;36505;52.512;13.460;2023-01-28T00:22:14;102217.22;;;-0.69;78.98
50550;BME280;36505;52.512;13.460;2023-01-28T00:24:39;102219.75;;;-0.67;78.99
50550;BME280;36505;52.512;13.460;2023-01-28T00:27:05;102207.53;;;-0.81;78.89
50550;BME280;36505;52.512;13.460;2023-01-28T00:29:30;102212.97;;;-0.71;79.12
50550;BME280;36505;52.512;13.460;2023-01-28T00:31:56;102229.34;;;-0.74;79.27
50550;BME280;36505;52.512;13.460;2023-01-28T00:34:21;102227.81;;;-0.77;79.26
50550;BME280;36505;52.512;13.460;2023-01-28T00:36:47;102227.22;;;-0.81;79.52
50550;BME280;36505;52.512;13.460;2023-01-28T00:39:22;102222.00;;;-0.82;79.61
50550;BME280;36505;52.512;13.460;2023-01-28T00:41:50;102223.94;;;-0.84;79.81
50550;BME280;36505;52.512;13.460;2023-01-28T00:44:15;102224.22;;;-0.87;79.98
50550;BME280;36505;52.512;13.460;2023-01-28T00:46:41;102230.25;;;-0.95;79.83
50550;BME280;36505;52.512;13.460;2023-01-28T00:49:07;102226.13;;;-0.99;80.38
50550;BME280;36505;52.512;13.460;2023-01-28T00:51:32;102231.50;;;-0.99;80.61
50550;BME280;36505;52.512;13.460;2023-01-28T00:53:58;102238.72;;;-0.99;80.68
50550;BME280;36505;52.512;13.460;2023-01-28T00:56:23;102237.75;;;-0.98;80.64
50550;BME280;36505;52.512;13.460;2023-01-28T00:58:48;102239.56;;;-0.99;80.59
50550;BME280;36505;52.512;13.460;2023-01-28T01:01:19;102242.41;;;-1.00;80.54
50550;BME280;36505;52.512;13.460;2023-01-28T01:03:45;102230.03;;;-1.12;80.81
50550;BME280;36505;52.512;13.460;2023-01-28T01:06:13;102245.63;;;-1.06;80.76
50550;BME280;36505;52.512;13.460;2023-01-28T01:08:39;102234.13;;;-1.08;80.74
50550;BME280;36505;52.512;13.460;2023-01-28T01:11:08;102250.13;;;-1.07;81.08
50550;BME280;36505;52.512;13.460;2023-01-28T01:13:35;102239.66;;;-1.10;81.18
50550;BME280;36505;52.512;13.460;2023-01-28T01:18:34;102234.28;;;-1.10;80.87
50550;BME280;36505;52.512;13.460;2023-01-28T01:21:01;102243.22;;;-1.09;80.94
50550;BME280;36505;52.512;13.460;2023-01-28T01:23:28;102239.25;;;-1.05;80.84
50550;BME280;36505;52.512;13.460;2023-01-28T01:25:53;102236.56;;;-1.05;80.71
50550;BME280;36505;52.512;13.460;2023-01-28T01:28:19;102249.47;;;-0.99;80.81
50550;BME280;36505;52.512;13.460;2023-01-28T01:30:45;102248.09;;;-0.94;80.41
50550;BME280;36505;52.512;13.460;2023-01-28T01:33:11;102242.59;;;-0.92;80.66
50550;BME280;36505;52.512;13.460;2023-01-28T01:35:36;102246.00;;;-0.90;80.45
50550;BME280;36505;52.512;13.460;2023-01-28T01:38:02;102230.19;;;-0.84;80.14
50550;BME280;36505;52.512;13.460;2023-01-28T01:40:28;102242.25;;;-0.78;80.26
50550;BME280;36505;52.512;13.460;2023-01-28T01:42:54;102240.97;;;-0.74;80.07
50550;BME280;36505;52.512;13.460;2023-01-28T01:45:20;102232.22;;;-0.76;79.83
50550;BME280;36505;52.512;13.460;2023-01-28T01:48:17;102248.38;;;-0.66;79.84
50550;BME280;36505;52.512;13.460;2023-01-28T01:50:52;102253.38;;;-0.62;79.81
50550;BME280;36505;52.512;13.460;2023-01-28T01:53:21;102256.75;;;-0.60;79.89
50550;BME280;36505;52.512;13.460;2023-01-28T01:55:49;102264.28;;;-0.54;79.51
50550;BME280;36505;52.512;13.460;2023-01-28T01:58:18;102252.28;;;-0.50;79.58
50550;BME280;36505;52.512;13.460;2023-01-28T02:00:46;102255.41;;;-0.45;79.25
50550;BME280;36505;52.512;13.460;2023-01-28T02:03:11;102255.28;;;-0.43;79.12
50550;BME280;36505;52.512;13.460;2023-01-28T02:05:38;102257.66;;;-0.40;79.02
50550;BME280;36505;52.512;13.460;2023-01-28T02:08:04;102253.44;;;-0.43;78.85
50550;BME280;36505;52.512;13.460;2023-01-28T02:10:54;102253.63;;;-0.34;78.46
50550;BME280;36505;52.512;13.460;2023-01-28T02:13:24;102257.00;;;-0.32;78.08
50550;BME280;36505;52.512;13.460;2023-01-28T02:15:51;102252.34;;;-0.30;78.11
50550;BME280;36505;52.512;13.460;2023-01-28T02:18:18;102252.06;;;-0.27;78.24
50550;BME280;36505;52.512;13.460;2023-01-28T02:23:21;102252.22;;;-0.19;77.68
50550;BME280;36505;52.512;13.460;2023-01-28T02:31:41;102248.28;;;-0.15;77.61
50550;BME280;36505;52.512;13.460;2023-01-28T02:34:28;102247.97;;;-0.12;77.17
50550;BME280;36505;52.512;13.460;2023-01-28T02:37:06;102242.88;;;-0.15;77.38
50550;BME280;36505;52.512;13.460;2023-01-28T02:39:56;102248.84;;;-0.12;77.44
50550;BME280;36505;52.512;13.460;2023-01-28T02:42:29;102254.09;;;-0.10;77.00
50550;BME280;36505;52.512;13.460;2023-01-28T02:44:55;102267.97;;;-0.05;76.98
50550;BME280;36505;52.512;13.460;2023-01-28T02:47:20;102262.47;;;-0.04;76.93
50550;BME280;36505;52.512;13.460;2023-01-28T02:50:08;102262.19;;;-0.01;76.62
50550;BME280;36505;52.512;13.460;2023-01-28T02:55:42;102256.22;;;-0.04;76.46
50550;BME280;36505;52.512;13.460;2023-01-28T03:00:52;102255.50;;;-0.06;76.12
50550;BME280;36505;52.512;13.460;2023-01-28T03:03:34;102257.06;;;-0.04;76.27
50550;BME280;36505;52.512;13.460;2023-01-28T03:06:09;102261.06;;;-0.08;76.39
50550;BME280;36505;52.512;13.460;2023-01-28T03:08:49;102258.19;;;-0.06;76.47
50550;BME280;36505;52.512;13.460;2023-01-28T03:11:38;102264.16;;;-0.03;76.48
50550;BME280;36505;52.512;13.460;2023-01-28T03:14:24;102260.03;;;-0.07;76.27
50550;BME280;36505;52.512;13.460;2023-01-28T03:17:16;102260.88;;;-0.06;75.92
50550;BME280;36505;52.512;13.460;2023-01-28T03:20:02;102266.16;;;-0.05;76.17
50550;BME280;36505;52.512;13.460;2023-01-28T03:22:50;102256.09;;;-0.03;75.75
50550;BME280;36505;52.512;13.460;2023-01-28T03:25:38;102253.66;;;-0.15;76.08
50550;BME280;36505;52.512;13.460;2023-01-28T03:28:25;102264.84;;;-0.10;76.31
50550;BME280;36505;52.512;13.460;2023-01-28T03:31:16;102266.16;;;-0.05;76.02
50550;BME280;36505;52.512;13.460;2023-01-28T03:34:02;102268.69;;;-0.03;75.50
50550;BME280;36505;52.512;13.460;2023-01-28T03:36:48;102266.00;;;-0.03;75.06
50550;BME280;36505;52.512;13.460;2023-01-28T03:39:25;102259.50;;;-0.01;74.62
50550;BME280;36505;52.512;13.460;2023-01-28T03:44:30;102259.34;;;0.01;75.12
50550;BME280;36505;52.512;13.460;2023-01-28T03:47:14;102257.97;;;0.07;74.86
50550;BME280;36505;52.512;13.460;2023-01-28T03:49:44;102251.72;;;0.06;74.78
50550;BME280;36505;52.512;13.460;2023-01-28T03:52:11;102253.84;;;0.12;74.44
50550;BME280;36505;52.512;13.460;2023-01-28T03:54:37;102258.09;;;0.15;74.71
50550;BME280;36505;52.512;13.460;2023-01-28T03:57:03;102255.97;;;0.18;74.20
50550;BME280;36505;52.512;13.460;2023-01-28T03:59:31;102254.00;;;0.20;73.89
50550;BME280;36505;52.512;13.460;2023-01-28T04:01:56;102259.41;;;0.20;73.50
50550;BME280;36505;52.512;13.460;2023-01-28T04:04:21;102261.06;;;0.21;73.08
50550;BME280;36505;52.512;13.460;2023-01-28T04:06:52;102255.41;;;0.24;72.59
50550;BME280;36505;52.512;13.460;2023-01-28T04:09:19;102253.72;;;0.23;73.01
50550;BME280;36505;52.512;13.460;2023-01-28T04:11:45;102258.13;;;0.24;72.80
50550;BME280;36505;52.512;13.460;2023-01-28T04:14:11;102262.50;;;0.25;72.54
50550;BME280;36505;52.512;13.460;2023-01-28T04:16:36;102263.78;;;0.31;72.07
50550;BME280;36505;52.512;13.460;2023-01-28T04:19:02;102254.31;;;0.27;71.47
50550;BME280;36505;52.512;13.460;2023-01-28T04:21:27;102263.34;;;0.35;71.34
50550;BME280;36505;52.512;13.460;2023-01-28T04:23:52;102265.78;;;0.38;69.37
50550;BME280;36505;52.512;13.460;2023-01-28T04:26:18;102257.41;;;0.42;68.55
50550;BME280;36505;52.512;13.460;2023-01-28T04:28:43;102247.78;;;0.39;66.93
50550;BME280;36505;52.512;13.460;2023-01-28T04:31:09;102266.34;;;0.42;67.34
50550;BME280;36505;52.512;13.460;2023-01-28T04:33:34;102270.75;;;0.43;68.17
50550;BME280;36505;52.512;13.460;2023-01-28T04:35:59;102259.81;;;0.45;68.32
50550;BME280;36505;52.512;13.460;2023-01-28T04:38:25;102267.34;;;0.51;68.94
50550;BME280;36505;52.512;13.460;2023-01-28T04:40:51;102269.75;;;0.54;68.80
50550;BME280;36505;52.512;13.460;2023-01-28T04:43:17;102267.63;;;0.57;68.80
50550;BME280;36505;52.512;13.460;2023-01-28T04:45:45;102271.75;;;0.61;68.37
50550;BME280;36505;52.512;13.460;2023-01-28T04:48:10;102266.78;;;0.66;67.72
50550;BME280;36505;52.512;13.460;2023-01-28T04:50:36;102263.50;;;0.72;68.00
50550;BME280;36505;52.512;13.460;2023-01-28T04:53:01;102259.69;;;0.75;67.63
50550;BME280;36505;52.512;13.460;2023-01-28T04:55:27;102257.66;;;0.77;67.17
50550;BME280;36505;52.512;13.460;2023-01-28T04:57:52;102259.78;;;0.83;66.15
50550;BME280;36505;52.512;13.460;2023-01-28T05:00:18;102254.56;;;0.82;66.25
50550;BME280;36505;52.512;13.460;2023-01-28T05:02:43;102261.63;;;0.83;66.31
50550;BME280;36505;52.512;13.460;2023-01-28T05:05:09;102266.03;;;0.84;66.42
50550;BME280;36505;52.512;13.460;2023-01-28T05:07:35;102257.53;;;0.88;65.96
50550;BME280;36505;52.512;13.460;2023-01-28T05:10:00;102264.19;;;0.94;65.91
50550;BME280;36505;52.512;13.460;2023-01-28T05:12:26;102271.44;;;0.93;65.84
50550;BME280;36505;52.512;13.460;2023-01-28T05:14:51;102269.72;;;0.92;65.78
50550;BME280;36505;52.512;13.460;2023-01-28T05:17:17;102271.97;;;0.97;65.45
50550;BME280;36505;52.512;13.460;2023-01-28T05:19:42;102281.63;;;0.99;65.21
50550;BME280;36505;52.512;13.460;2023-01-28T05:22:08;102294.84;;;1.02;65.35
50550;BME280;36505;52.512;13.460;2023-01-28T05:24:33;102294.84;;;1.02;65.43
50550;BME280;36505;52.512;13.460;2023-01-28T05:26:59;102292.97;;;1.03;65.15
50550;BME280;36505;52.512;13.460;2023-01-28T05:29:24;102291.13;;;1.03;65.08
50550;BME280;36505;52.512;13.460;2023-01-28T05:31:49;102291.97;;;1.04;64.77
50550;BME280;36505;52.512;13.460;2023-01-28T05:34:15;102286.31;;;1.07;65.03
50550;BME280;36505;52.512;13.460;2023-01-28T05:36:40;102283.47;;;1.08;65.24
50550;BME280;36505;52.512;13.460;2023-01-28T05:39:06;102285.44;;;1.06;65.31
50550;BME280;36505;52.512;13.460;2023-01-28T05:41:32;102290.72;;;1.08;64.93
50550;BME280;36505;52.512;13.460;2023-01-28T05:43:57;102285.44;;;1.06;64.88
50550;BME280;36505;52.512;13.460;2023-01-28T05:46:23;102272.81;;;1.07;64.82
50550;BME280;36505;52.512;13.460;2023-01-28T05:48:49;102281.19;;;1.13;64.31
50550;BME280;36505;52.512;13.460;2023-01-28T05:51:15;102280.19;;;1.14;64.56
50550;BME280;36505;52.512;13.460;2023-01-28T05:53:41;102280.31;;;1.13;64.53
50550;BME280;36505;52.512;13.460;2023-01-28T05:56:06;102286.44;;;1.15;64.64
50550;BME280;36505;52.512;13.460;2023-01-28T05:58:32;102287.13;;;1.17;64.58
50550;BME280;36505;52.512;13.460;2023-01-28T06:00:57;102280.72;;;1.18;64.62
50550;BME280;36505;52.512;13.460;2023-01-28T06:03:23;102281.31;;;1.22;64.45
50550;BME280;36505;52.512;13.460;2023-01-28T06:05:48;102283.28;;;1.19;64.44
50550;BME280;36505;52.512;13.460;2023-01-28T06:08:14;102276.91;;;1.21;64.33
50550;BME280;36505;52.512;13.460;2023-01-28T06:10:39;102279.28;;;1.24;63.47
50550;BME280;36505;52.512;13.460;2023-01-28T06:13:05;102289.09;;;1.25;63.56
50550;BME280;36505;52.512;13.460;2023-01-28T06:15:30;102289.41;;;1.22;64.13
50550;BME280;36505;52.512;13.460;2023-01-28T06:17:55;102293.63;;;1.24;63.98
50550;BME280;36505;52.512;13.460;2023-01-28T06:20:21;102296.50;;;1.23;64.25
50550;BME280;36505;52.512;13.460;2023-01-28T06:22:49;102286.69;;;1.22;64.41
50550;BME280;36505;52.512;13.460;2023-01-28T06:25:15;102284.84;;;1.22;64.06
50550;BME280;36505;52.512;13.460;2023-01-28T06:27:41;102297.50;;;1.22;64.32
50550;BME280;36505;52.512;13.460;2023-01-28T06:30:07;102297.31;;;1.23;64.09
50550;BME280;36505;52.512;13.460;2023-01-28T06:32:32;102298.03;;;1.25;64.14
50550;BME280;36505;52.512;13.460;2023-01-28T06:34:58;102300.88;;;1.24;63.69
50550;BME280;36505;52.512;13.460;2023-01-28T06:37:23;102301.72;;;1.24;64.04
50550;BME280;36505;52.512;13.460;2023-01-28T06:39:48;102294.63;;;1.23;63.94
50550;BME280;36505;52.512;13.460;2023-01-28T06:42:14;102300.75;;;1.25;64.47
50550;BME280;36505;52.512;13.460;2023-01-28T06:44:39;102297.91;;;1.27;64.09
50550;BME280;36505;52.512;13.460;2023-01-28T06:47:05;102305.72;;;1.30;63.77
50550;BME280;36505;52.512;13.460;2023-01-28T06:49:30;102300.00;;;1.33;63.90
50550;BME280;36505;52.512;13.460;2023-01-28T06:51:55;102302.72;;;1.33;63.70
50550;BME280;36505;52.512;13.460;2023-01-28T06:54:21;102306.25;;;1.33;63.94
50550;BME280;36505;52.512;13.460;2023-01-28T06:56:46;102300.31;;;1.30;63.84
50550;BME280;36505;52.512;13.460;2023-01-28T06:59:11;102299.03;;;1.34;63.98
50550;BME280;36505;52.512;13.460;2023-01-28T07:01:37;102311.81;;;1.32;64.13
50550;BME280;36505;52.512;13.460;2023-01-28T07:04:03;102314.34;;;1.33;64.19
50550;BME280;36505;52.512;13.460;2023-01-28T07:06:28;102310.41;;;1.28;64.63
50550;BME280;36505;52.512;13.460;2023-01-28T07:08:54;102306.84;;;1.27;64.51
50550;BME280;36505;52.512;13.460;2023-01-28T07:11:19;102300.75;;;1.25;64.11
50550;BME280;36505;52.512;13.460;2023-01-28T07:13:44;102313.81;;;1.30;64.16
50550;BME280;36505;52.512;13.460;2023-01-28T07:16:11;102313.66;;;1.31;63.74
50550;BME280;36505;52.512;13.460;2023-01-28T07:18:37;102328.00;;;1.32;63.61
50550;BME280;36505;52.512;13.460;2023-01-28T07:21:02;102320.22;;;1.29;63.59
50550;BME280;36505;52.512;13.460;2023-01-28T07:23:27;102315.50;;;1.31;64.09
50550;BME280;36505;52.512;13.460;2023-01-28T07:25:53;102314.91;;;1.37;63.31
50550;BME280;36505;52.512;13.460;2023-01-28T07:28:18;102315.75;;;1.37;63.63
50550;BME280;36505;52.512;13.460;2023-01-28T07:30:49;102309.94;;;1.42;63.46
50550;BME280;36505;52.512;13.460;2023-01-28T07:33:15;102302.13;;;1.39;63.64
50550;BME280;36505;52.512;13.460;2023-01-28T07:35:40;102313.50;;;1.42;63.30
50550;BME280;36505;52.512;13.460;2023-01-28T07:38:06;102315.16;;;1.43;63.16
50550;BME280;36505;52.512;13.460;2023-01-28T07:40:31;102309.34;;;1.48;62.77
50550;BME280;36505;52.512;13.460;2023-01-28T07:42:57;102303.25;;;1.46;62.70
50550;BME280;36505;52.512;13.460;2023-01-28T07:45:24;102298.16;;;1.43;62.25
50550;BME280;36505;52.512;13.460;2023-01-28T07:47:56;102315.59;;;1.48;62.92
50550;BME280;36505;52.512;13.460;2023-01-28T07:50:22;102308.34;;;1.49;62.49
50550;BME280;36505;52.512;13.460;2023-01-28T07:52:47;102312.91;;;1.48;62.06
50550;BME280;36505;52.512;13.460;2023-01-28T07:55:13;102313.75;;;1.49;62.07
50550;BME280;36505;52.512;13.460;2023-01-28T07:57:57;102314.44;;;1.51;62.13
50550;BME280;36505;52.512;13.460;2023-01-28T08:00:24;102316.28;;;1.50;61.63
50550;BME280;36505;52.512;13.460;2023-01-28T08:02:53;102309.22;;;1.49;61.07
50550;BME280;36505;52.512;13.460;2023-01-28T08:05:20;102308.63;;;1.46;61.47
50550;BME280;36505;52.512;13.460;2023-01-28T08:07:46;102311.72;;;1.51;61.26
50550;BME280;36505;52.512;13.460;2023-01-28T08:10:18;102322.53;;;1.51;61.34
50550;BME280;36505;52.512;13.460;2023-01-28T08:12:55;102316.84;;;1.54;61.09
50550;BME280;36505;52.512;13.460;2023-01-28T08:15:21;102330.63;;;1.61;61.15
50550;BME280;36505;52.512;13.460;2023-01-28T08:17:47;102324.22;;;1.62;61.23
50550;BME280;36505;52.512;13.460;2023-01-28T08:20:13;102324.63;;;1.67;61.69
50550;BME280;36505;52.512;13.460;2023-01-28T08:22:38;102328.88;;;1.69;61.17
50550;BME280;36505;52.512;13.460;2023-01-28T08:25:04;102336.56;;;1.64;59.27
50550;BME280;36505;52.512;13.460;2023-01-28T08:27:29;102330.16;;;1.65;59.88
50550;BME280;36505;52.512;13.460;2023-01-28T08:29:55;102329.03;;;1.68;59.03
50550;BME280;36505;52.512;13.460;2023-01-28T08:32:20;102332.00;;;1.65;59.03
50550;BME280;36505;52.512;13.460;2023-01-28T08:34:46;102330.88;;;1.67;59.31
50550;BME280;36505;52.512;13.460;2023-01-28T08:37:11;102343.91;;;1.72;59.88
50550;BME280;36505;52.512;13.460;2023-01-28T08:39:37;102356.84;;;1.78;60.12
50550;BME280;36505;52.512;13.460;2023-01-28T08:42:04;102342.38;;;1.69;60.08
50550;BME280;36505;52.512;13.460;2023-01-28T08:44:30;102347.44;;;1.82;59.49
50550;BME280;36505;52.512;13.460;2023-01-28T08:46:55;102350.28;;;1.80;58.38
50550;BME280;36505;52.512;13.460;2023-01-28T08:49:20;102353.13;;;1.79;59.05
50550;BME280;36505;52.512;13.460;2023-01-28T08:51:46;102345.88;;;1.79;59.47
50550;BME280;36505;52.512;13.460;2023-01-28T08:54:12;102351.00;;;1.82;58.74
50550;BME280;36505;52.512;13.460;2023-01-28T08:56:37;102358.41;;;1.80;58.28
50550;BME280;36505;52.512;13.460;2023-01-28T08:59:03;102356.56;;;1.81;58.22
50550;BME280;36505;52.512;13.460;2023-01-28T09:01:28;102342.53;;;1.68;58.84
50550;BME280;36505;52.512;13.460;2023-01-28T09:03:54;102350.19;;;1.72;59.56
50550;BME280;36505;52.512;13.460;2023-01-28T09:06:20;102362.81;;;1.81;58.79
50550;BME280;36505;52.512;13.460;2023-01-28T09:08:45;102359.53;;;1.78;58.05
50550;BME280;36505;52.512;13.460;2023-01-28T09:11:10;102371.63;;;1.83;58.70
50550;BME280;36505;52.512;13.460;2023-01-28T09:13:36;102369.31;;;1.88;58.30
50550;BME280;36505;52.512;13.460;2023-01-28T09:16:04;102367.00;;;1.93;58.57
50550;BME280;36505;52.512;13.460;2023-01-28T09:18:30;102374.84;;;1.96;57.83
50550;BME280;36505;52.512;13.460;2023-01-28T09:20:55;102385.63;;;1.96;57.58
50550;BME280;36505;52.512;13.460;2023-01-28T09:23:21;102371.63;;;1.83;58.48
50550;BME280;36505;52.512;13.460;2023-01-28T09:25:46;102383.09;;;1.95;59.43
50550;BME280;36505;52.512;13.460;2023-01-28T09:28:11;102383.88;;;2.05;59.13
50550;BME280;36505;52.512;13.460;2023-01-28T09:30:37;102390.13;;;2.06;57.41
50550;BME280;36505;52.512;13.460;2023-01-28T09:33:04;102392.16;;;2.04;58.94
50550;BME280;36505;52.512;13.460;2023-01-28T09:35:30;102388.47;;;2.05;60.08
50550;BME280;36505;52.512;13.460;2023-01-28T09:37:56;102389.28;;;2.05;60.17
50550;BME280;36505;52.512;13.460;2023-01-28T09:40:35;102388.84;;;2.10;59.95
50550;BME280;36505;52.512;13.460;2023-01-28T09:45:41;102397.63;;;2.12;57.08
50550;BME280;36505;52.512;13.460;2023-01-28T09:48:18;102395.66;;;2.14;57.45
50550;BME280;36505;52.512;13.460;2023-01-28T09:50:48;102382.75;;;2.08;58.70
50550;BME280;36505;52.512;13.460;2023-01-28T09:53:19;102389.00;;;2.08;57.59
50550;BME280;36505;52.512;13.460;2023-01-28T09:55:52;102390.13;;;2.06;57.72
50550;BME280;36505;52.512;13.460;2023-01-28T09:58:18;102402.91;;;2.13;57.90
50550;BME280;36505;52.512;13.460;2023-01-28T10:00:51;102409.03;;;2.15;57.54
50550;BME280;36505;52.512;13.460;2023-01-28T10:06:49;102405.31;;;2.16;57.18
50550;BME280;36505;52.512;13.460;2023-01-28T10:16:52;102395.22;;;2.18;57.98
50550;BME280;36505;52.512;13.460;2023-01-28T10:21:57;102383.25;;;2.21;57.49
50550;BME280;36505;52.512;13.460;2023-01-28T10:24:53;102396.63;;;2.22;57.57
50550;BME280;36505;52.512;13.460;2023-01-28T10:27:26;102389.66;;;2.20;57.11
50550;BME280;36505;52.512;13.460;2023-01-28T10:29:52;102385.81;;;2.22;57.40
50550;BME280;36505;52.512;13.460;2023-01-28T10:32:29;102377.97;;;2.19;57.49
50550;BME280;36505;52.512;13.460;2023-01-28T10:34:55;102382.50;;;2.28;57.47
50550;BME280;36505;52.512;13.460;2023-01-28T10:37:24;102379.31;;;2.33;55.31
50550;BME280;36505;52.512;13.460;2023-01-28T10:39:52;102366.31;;;2.19;55.87
50550;BME280;36505;52.512;13.460;2023-01-28T10:42:29;102381.00;;;2.16;56.63
50550;BME280;36505;52.512;13.460;2023-01-28T10:45:20;102380.84;;;2.18;55.76
50550;BME280;36505;52.512;13.460;2023-01-28T10:47:52;102378.28;;;2.16;56.12
50550;BME280;36505;52.512;13.460;2023-01-28T10:50:23;102374.28;;;2.20;56.69
50550;BME280;36505;52.512;13.460;2023-01-28T10:52:57;102371.44;;;2.22;56.33
50550;BME280;36505;52.512;13.460;2023-01-28T10:55:45;102366.31;;;2.19;56.77
50550;BME280;36505;52.512;13.460;2023-01-28T10:58:23;102381.97;;;2.25;55.70
50550;BME280;36505;52.512;13.460;2023-01-28T11:00:53;102373.84;;;2.25;57.01
50550;BME280;36505;52.512;13.460;2023-01-28T11:03:19;102376.22;;;2.28;56.24
50550;BME280;36505;52.512;13.460;2023-01-28T11:05:53;102381.78;;;2.26;56.30
50550;BME280;36505;52.512;13.460;2023-01-28T11:08:21;102371.03;;;2.17;55.80
50550;BME280;36505;52.512;13.460;2023-01-28T11:10:47;102373.59;;;2.18;56.01
50550;BME280;36505;52.512;13.460;2023-01-28T11:13:24;102370.03;;;2.18;56.91
50550;BME280;36505;52.512;13.460;2023-01-28T11:15:53;102375.84;;;2.23;57.28
50550;BME280;36505;52.512;13.460;2023-01-28T11:18:24;102381.34;;;2.31;57.08
50550;BME280;36505;52.512;13.460;2023-01-28T11:20:53;102371.94;;;2.35;56.78
50550;BME280;36505;52.512;13.460;2023-01-28T11:23:24;102366.91;;;2.40;56.37
50550;BME280;36505;52.512;13.460;2023-01-28T11:25:59;102360.66;;;2.39;56.41
50550;BME280;36505;52.512;13.460;2023-01-28T11:28:26;102357.66;;;2.43;55.95
50550;BME280;36505;52.512;13.460;2023-01-28T11:30:53;102361.75;;;2.47;56.10
50550;BME280;36505;52.512;13.460;2023-01-28T11:33:27;102358.03;;;2.48;56.32
50550;BME280;36505;52.512;13.460;2023-01-28T11:36:16;102347.38;;;2.46;56.33
50550;BME280;36505;52.512;13.460;2023-01-28T11:38:56;102359.88;;;2.47;55.61
50550;BME280;36505;52.512;13.460;2023-01-28T11:41:32;102349.25;;;2.46;56.13
50550;BME280;36505;52.512;13.460;2023-01-28T11:43:59;102344.66;;;2.46;55.83
50550;BME280;36505;52.512;13.460;2023-01-28T11:52:06;102344.19;;;2.33;56.52
50550;BME280;36505;52.512;13.460;2023-01-28T12:03:32;102330.66;;;2.33;56.79
50550;BME280;36505;52.512;13.460;2023-01-28T12:09:12;102324.72;;;2.29;57.20
50550;BME280;36505;52.512;13.460;2023-01-28T12:14:41;102332.38;;;2.34;57.46
50550;BME280;36505;52.512;13.460;2023-01-28T12:20:11;102320.56;;;2.35;58.56
50550;BME280;36505;52.512;13.460;2023-01-28T12:22:55;102319.56;;;2.36;59.17
50550;BME280;36505;52.512;13.460;2023-01-28T12:41:53;102316.16;;;2.34;62.23
50550;BME280;36505;52.512;13.460;2023-01-28T12:44:26;102316.00;;;2.35;62.33
50550;BME280;36505;52.512;13.460;2023-01-28T12:47:04;102307.91;;;2.35;62.34
50550;BME280;36505;52.512;13.460;2023-01-28T12:49:38;102309.13;;;2.41;62.87
50550;BME280;36505;52.512;13.460;2023-01-28T12:52:23;102309.00;;;2.43;62.83
50550;BME280;36505;52.512;13.460;2023-01-28T12:55:03;102310.84;;;2.42;63.05
50550;BME280;36505;52.512;13.460;2023-01-28T12:57:31;102297.19;;;2.44;62.79
50550;BME280;36505;52.512;13.460;2023-01-28T13:00:29;102306.13;;;2.44;62.94
50550;BME280;36505;52.512;13.460;2023-01-28T13:05:49;102310.06;;;2.50;62.45
50550;BME280;36505;52.512;13.460;2023-01-28T13:08:26;102306.53;;;2.49;62.21
50550;BME280;36505;52.512;13.460;2023-01-28T13:10:52;102295.31;;;2.44;61.82
50550;BME280;36505;52.512;13.460;2023-01-28T13:13:29;102289.91;;;2.44;61.73
50550;BME280;36505;52.512;13.460;2023-01-28T13:15:56;102277.88;;;2.38;62.34
50550;BME280;36505;52.512;13.460;2023-01-28T13:21:01;102277.94;;;2.47;62.65
50550;BME280;36505;52.512;13.460;2023-01-28T13:26:08;102267.81;;;2.49;61.56
50550;BME280;36505;52.512;13.460;2023-01-28T13:28:34;102277.78;;;2.48;61.98
50550;BME280;36505;52.512;13.460;2023-01-28T13:31:10;102276.94;;;2.48;62.03
50550;BME280;36505;52.512;13.460;2023-01-28T13:33:46;102275.06;;;2.48;62.57
50550;BME280;36505;52.512;13.460;2023-01-28T13:36:38;102273.69;;;2.44;62.64
50550;BME280;36505;52.512;13.460;2023-01-28T13:41:52;102265.72;;;2.43;63.90
50550;BME280;36505;52.512;13.460;2023-01-28T13:44:30;102254.84;;;2.34;64.08
50550;BME280;36505;52.512;13.460;2023-01-28T13:47:11;102257.00;;;2.31;64.45
50550;BME280;36505;52.512;13.460;2023-01-28T13:49:43;102271.75;;;2.36;64.64
50550;BME280;36505;52.512;13.460;2023-01-28T13:52:47;102267.50;;;2.34;64.49
50550;BME280;36505;52.512;13.460;2023-01-28T13:55:17;102261.56;;;2.30;64.49
50550;BME280;36505;52.512;13.460;2023-01-28T14:01:20;102261.56;;;2.30;63.92
50550;BME280;36505;52.512;13.460;2023-01-28T14:20:20;102240.22;;;2.27;62.60
50550;BME280;36505;52.512;13.460;2023-01-28T14:22:47;102230.28;;;2.28;62.33
50550;BME280;36505;52.512;13.460;2023-01-28T14:25:16;102237.09;;;2.32;62.04
50550;BME280;36505;52.512;13.460;2023-01-28T14:27:49;102236.91;;;2.33;62.67
50550;BME280;36505;52.512;13.460;2023-01-28T14:30:42;102242.88;;;2.37;62.59
50550;BME280;36505;52.512;13.460;2023-01-28T14:33:11;102231.34;;;2.35;62.35
50550;BME280;36505;52.512;13.460;2023-01-28T14:35:39;102241.16;;;2.36;61.28
50550;BME280;36505;52.512;13.460;2023-01-28T14:38:13;102250.66;;;2.40;61.28
50550;BME280;36505;52.512;13.460;2023-01-28T14:40:41;102263.50;;;2.38;61.26
50550;BME280;36505;52.512;13.460;2023-01-28T14:43:11;102258.38;;;2.35;60.98
50550;BME280;36505;52.512;13.460;2023-01-28T14:50:54;102272.38;;;2.30;60.59